Latest Coastal Weather Observations for Cape Byron

IDN60701

Issued at 12:01 pm EDT Sunday 26 February 2017 (issued every 10 minutes, with the page automatically refreshed every 10 minutes)

About coastal observations | Map of coastal stations | Coastal observations for NSW | Marine services | Other Formats
Station Details ID: 058216 Name: CAPE BYRON AWS Lat: -28.64 Lon: 153.64 Height: 95.0 m
Data from the previous 72 hours. | See also: Recent months at Cape Byron
Date/Time
EDT
Temp
°C
Wind Pressure Rain since
9am
mm
Weather Cloud Vis
km
Sea
Height
m
Swell
Dir  Spd
kts
Gust
kts
hPa Trend Height
m
Period
s
Dir
26/11:30am 25.7 S 16 19 1017.5 - 0.0 - - - - - - -
26/11:00am 25.7 S 14 18 1017.5 - 0.0 - - - - - - -
26/10:30am 25.1 S 16 19 1017.3 - 0.0 - - - - - - -
26/10:00am 25.3 SSE 14 18 1017.3 - 0.0 - - - - - - -
26/09:30am 24.0 SSW 10 13 1017.0 - 0.0 - - - - - - -
26/09:00am 22.3 SW 10 13 1016.8 - 0.0 - - - - - - -
26/08:30am 22.1 SW 10 13 1016.5 - 0.0 - - - - - - -
26/08:00am 21.6 SW 9 12 1016.2 - 0.0 - - - - - - -
26/07:30am 21.1 SW 9 11 1015.9 - 0.0 - - - - - - -
26/07:00am 21.0 SW 10 13 1015.5 - 0.0 - - - - - - -
26/06:30am 20.9 SW 9 13 1014.9 - 0.0 - - - - - - -
26/06:00am 21.4 SSW 10 14 1014.8 - 0.0 - - - - - - -
26/05:30am 21.4 SSW 10 12 1014.5 - 0.0 - - - - - - -
26/05:00am 21.7 SW 9 13 1014.5 - 0.0 - - - - - - -
26/04:30am 22.0 SW 11 16 1014.5 - 0.0 - - - - - - -
26/04:00am 21.7 SW 9 13 1014.4 - 0.0 - - - - - - -
26/03:30am 22.5 SSW 10 16 1014.5 - 0.0 - - - - - - -
26/03:00am 23.8 S 14 20 1014.6 - 0.0 - - - - - - -
26/02:30am 23.9 S 17 21 1014.8 - 0.0 - - - - - - -
26/02:00am 24.0 S 17 21 1015.4 - 0.0 - - - - - - -
26/01:30am 24.1 S 18 23 1015.7 - 0.0 - - - - - - -
26/01:00am 24.1 S 19 23 1016.2 - 0.0 - - - - - - -
26/12:30am 24.0 S 18 22 1016.5 - 0.0 - - - - - - -
26/12:00am 24.1 S 19 24 1016.7 - 0.0 - - - - - - -
 
Date/Time
EDT
Temp
°C
Wind Pressure Rain since
9am
mm
Weather Cloud Vis
km
Sea
Height
m
Swell
Dir  Spd
kts
Gust
kts
hPa Trend Height
m
Period
s
Dir
25/11:30pm 24.2 S 16 20 1016.7 - 0.0 - - - - - - -
25/11:00pm 24.3 S 17 23 1016.8 - 0.0 - - - - - - -
25/10:30pm 24.1 S 16 20 1017.0 - 0.0 - - - - - - -
25/10:00pm 24.1 S 16 21 1017.0 - 0.0 - - - - - - -
25/09:30pm 24.2 S 16 20 1016.5 - 0.0 - - - - - - -
25/09:00pm 24.1 SSE 15 20 1016.4 - 0.0 - - - - - - -
25/08:30pm 24.2 SSE 15 19 1016.2 - 0.0 - - - - - - -
25/08:00pm 24.2 SSE 17 23 1016.1 - 0.0 - - - - - - -
25/07:30pm 24.3 SSE 16 23 1015.8 - 0.0 - - - - - - -
25/07:00pm 24.3 SSE 18 23 1015.3 - 0.0 - - - - - - -
25/06:30pm 24.7 SSE 16 20 1015.1 - 0.0 - - - - - - -
25/06:00pm 25.2 SSE 17 22 1015.0 - 0.0 - - - - - - -
25/05:30pm 25.5 S 18 23 1014.9 - 0.0 - - - - - - -
25/05:00pm 25.7 S 18 23 1014.9 - 0.0 - - - - - - -
25/04:30pm 25.9 S 17 22 1014.8 - 0.0 - - - - - - -
25/04:00pm 26.1 S 17 22 1015.0 - 0.0 - - - - - - -
25/03:30pm 26.1 S 18 24 1015.1 - 0.0 - - - - - - -
25/03:00pm 25.9 SSE 18 24 1015.5 - 0.0 - - - - - - -
25/02:30pm 26.2 SSE 17 22 1015.9 - 0.0 - - - - - - -
25/02:00pm 26.2 S 17 23 1016.1 - 0.0 - - - - - - -
25/01:30pm 26.2 SSE 17 24 1016.3 - 0.0 - - - - - - -
25/01:00pm 25.0 S 17 24 1016.6 - 0.0 - - - - - - -
25/12:30pm 25.1 S 20 25 1016.6 - 0.0 - - - - - - -
25/12:00pm 25.4 SSW 22 26 1016.7 - 0.0 - - - - - - -
25/11:30am 25.8 S 19 22 1017.0 - 0.0 - - - - - - -
25/11:00am 25.6 SSW 19 23 1017.4 - 0.0 - - - - - - -
25/10:30am 25.5 SSW 15 19 1017.5 - 0.0 - - - - - - -
25/10:00am 25.1 SSW 14 19 1017.6 - 0.0 - - - - - - -
25/09:30am 24.2 SW 13 17 1017.4 - 0.0 - - - - - - -
25/09:00am 23.1 SW 13 16 1017.3 - 0.0 - - - - - - -
25/08:30am 21.7 SW 14 18 1017.1 - 0.0 - - - - - - -
25/08:00am 20.7 SW 14 17 1017.0 - 0.0 - - - - - - -
25/07:30am 20.2 WSW 14 19 1016.8 - 0.0 - - - - - - -
25/07:00am 19.8 WSW 14 17 1016.5 - 0.0 - - - - - - -
25/06:30am 19.8 WSW 14 17 1016.2 - 0.0 - - - - - - -
25/06:00am 20.0 WSW 13 16 1016.2 - 0.0 - - - - - - -
25/05:30am 20.1 WSW 13 15 1016.1 - 0.0 - - - - - - -
25/05:00am 20.0 WSW 12 15 1015.9 - 0.0 - - - - - - -
25/04:30am 20.3 SW 11 14 1015.8 - 0.0 - - - - - - -
25/04:00am 20.9 SW 10 13 1015.8 - 0.0 - - - - - - -
25/03:30am 21.2 SW 9 11 1016.1 - 0.0 - - - - - - -
25/03:00am 21.4 SW 9 11 1016.1 - 0.0 - - - - - - -
25/02:30am 21.7 SW 8 11 1016.2 - 0.0 - - - - - - -
25/02:00am 23.0 SE 9 13 1016.4 - 0.0 - - - - - - -
25/01:30am 23.0 SSE 8 10 1016.6 - 0.0 - - - - - - -
25/01:00am 23.2 SSE 9 13 1017.0 - 0.0 - - - - - - -
25/12:30am 23.3 SE 12 15 1017.1 - 0.0 - - - - - - -
25/12:00am 23.4 ESE 8 12 1017.3 - 0.0 - - - - - - -
 
Date/Time
EDT
Temp
°C
Wind Pressure Rain since
9am
mm
Weather Cloud Vis
km
Sea
Height
m
Swell
Dir  Spd
kts
Gust
kts
hPa Trend Height
m
Period
s
Dir
24/11:30pm 23.5 ESE 11 14 1017.4 - 0.0 - - - - - - -
24/11:00pm 23.4 E 11 14 1017.4 - 0.0 - - - - - - -
24/10:30pm 23.4 E 10 13 1017.7 - 0.0 - - - - - - -
24/10:00pm 23.4 E 11 14 1017.8 - 0.0 - - - - - - -
24/09:30pm 23.5 ESE 12 14 1017.7 - 0.0 - - - - - - -
24/09:00pm 23.5 ESE 12 16 1017.7 - 0.0 - - - - - - -
24/08:30pm 23.7 E 12 16 1017.4 - 0.0 - - - - - - -
24/08:00pm 23.8 ESE 13 17 1017.2 - 0.0 - - - - - - -
24/07:30pm 24.0 E 14 18 1017.0 - 0.0 - - - - - - -
24/07:00pm 24.4 ESE 14 17 1017.0 - 0.0 - - - - - - -
24/06:30pm 24.8 ESE 14 17 1017.0 - 0.0 - - - - - - -
24/06:00pm 25.3 SE 13 16 1016.9 - 0.0 - - - - - - -
24/05:30pm 26.0 SE 12 15 1016.8 - 0.0 - - - - - - -
24/05:00pm 26.2 SE 12 16 1016.7 - 0.0 - - - - - - -
24/04:30pm 26.4 SSE 11 14 1016.9 - 0.0 - - - - - - -
24/04:00pm 26.5 SSE 11 15 1017.0 - 0.0 - - - - - - -
24/03:30pm 26.5 SE 15 19 1017.1 - 0.0 - - - - - - -
24/03:00pm 26.8 SE 13 18 1017.4 - 0.0 - - - - - - -
24/02:30pm 27.2 SE 13 18 1017.7 - 0.0 - - - - - - -
24/02:00pm 27.0 SSE 12 16 1018.1 - 0.0 - - - - - - -
24/01:30pm 26.7 S 11 15 1018.5 - 0.0 - - - - - - -
24/01:00pm 27.2 SE 11 15 1018.7 - 0.0 - - - - - - -
24/12:30pm 27.5 SE 10 13 1019.0 - 0.0 - - - - - - -
24/12:00pm 27.1 SE 10 13 1019.3 - 0.0 - - - - - - -
24/11:30am 27.0 SSE 9 13 1019.4 - 0.0 - - - - - - -
24/11:00am 25.6 S 11 13 1019.6 - 0.0 - - - - - - -
24/10:30am 25.2 S 11 13 1019.7 - 0.0 - - - - - - -
24/10:00am 24.7 SSW 9 12 1019.7 - 0.0 - - - - - - -
24/09:30am 24.6 SSW 10 13 1019.6 - 0.0 - - - - - - -
24/09:00am 23.8 SW 8 10 1019.4 - 0.0 - - - - - - -
24/08:30am 22.3 SW 9 11 1019.1 - 0.0 - - - - - - -
24/08:00am 21.1 SW 9 11 1018.9 - 0.0 - - - - - - -
24/07:30am 20.8 WSW 10 12 1018.7 - 0.0 - - - - - - -
24/07:00am 20.7 WSW 11 13 1018.3 - 0.0 - - - - - - -
24/06:30am 20.5 WSW 9 11 1018.0 - 0.0 - - - - - - -
24/06:00am 20.6 SW 8 10 1017.8 - 0.0 - - - - - - -
24/05:30am 20.8 SW 7 9 1017.5 - 0.0 - - - - - - -
24/05:00am 21.8 S 6 9 1017.4 - 0.0 - - - - - - -
24/04:30am 21.6 SE 7 11 1017.5 - 0.0 - - - - - - -
24/04:00am 22.0 S 5 7 1017.5 - 0.0 - - - - - - -
24/03:30am 23.1 ESE 10 13 1017.7 - 0.0 - - - - - - -
24/03:00am 23.2 ESE 12 15 1017.8 - 0.0 - - - - - - -
24/02:30am 23.4 SE 11 14 1018.1 - 0.0 - - - - - - -
24/02:00am 23.1 ESE 12 15 1018.3 - 0.0 - - - - - - -
24/01:30am 23.3 ESE 14 17 1018.5 - 0.0 - - - - - - -
24/01:00am 23.5 ESE 14 16 1018.8 - 0.0 - - - - - - -
24/12:30am 23.6 ESE 13 16 1019.1 - 0.0 - - - - - - -
24/12:00am 23.5 ESE 13 18 1019.1 - 0.0 - - - - - - -
 
Date/Time
EDT
Temp
°C
Wind Pressure Rain since
9am
mm
Weather Cloud Vis
km
Sea
Height
m
Swell
Dir  Spd
kts
Gust
kts
hPa Trend Height
m
Period
s
Dir
23/11:30pm 23.3 E 15 18 1019.2 - 0.0 - - - - - - -
23/11:00pm 23.7 ESE 14 18 1019.4 - 0.0 - - - - - - -
23/10:30pm 23.9 SE 14 16 1019.6 - 0.0 - - - - - - -
23/10:00pm 23.9 SE 16 19 1019.6 - 0.0 - - - - - - -
23/09:30pm 23.8 ESE 15 18 1019.5 - 0.0 - - - - - - -
23/09:00pm 23.8 ESE 15 19 1019.3 - 0.0 - - - - - - -
23/08:30pm 24.0 E 15 19 1019.1 - 0.0 - - - - - - -
23/08:00pm 24.3 SE 14 19 1019.1 - 0.0 - - - - - - -
23/07:30pm 24.5 SE 11 15 1019.1 - 0.0 - - - - - - -
23/07:00pm 24.8 SE 11 15 1018.9 - 0.0 - - - - - - -
23/06:30pm 25.1 SSE 9 14 1018.7 - 0.0 - - - - - - -
23/06:00pm 25.7 SE 12 15 1018.6 - 0.0 - - - - - - -
23/05:30pm 26.0 SSE 11 15 1018.5 - 0.0 - - - - - - -
23/05:00pm 26.1 SSE 12 16 1018.3 - 0.0 - - - - - - -
23/04:30pm 26.5 S 12 15 1018.3 - 0.0 - - - - - - -
23/04:00pm 26.5 SSE 12 17 1018.5 - 0.0 - - - - - - -
23/03:30pm 26.9 SSE 12 16 1018.6 - 0.0 - - - - - - -
23/03:00pm 26.7 SSE 11 15 1018.7 - 0.0 - - - - - - -
23/02:30pm 26.6 SSE 11 15 1019.0 - 0.0 - - - - - - -
23/02:00pm 26.4 S 12 15 1019.1 - 0.0 - - - - - - -
23/01:30pm 25.7 S 13 16 1019.4 - 0.0 - - - - - - -
23/01:00pm 25.7 S 14 16 1019.7 - 0.0 - - - - - - -
23/12:30pm 25.6 S 13 18 1019.8 - 0.0 - - - - - - -

Other Formats:

Comma delimited format used in spreadsheet applications
http://www.bom.gov.au/fwo/IDN60701/IDN60701.94599.axf

JavaScript Object Notation format (JSON) in row-major order
http://www.bom.gov.au/fwo/IDN60701/IDN60701.94599.json